Time;durP1;ratioP1;P1;durP2;ratioP2;P2;SDS_P1;SDS_P2;PMS_P1;PMS_P2;Temp;Humidity;BMP_temperature;BMP_pressure;BME280_temperature;BME280_humidity;BME280_pressure;Samples;Min_cycle;Max_cycle;Signal;HPM_P1;HPM_P2
2022/10/27 00:00:09;;;;;;;16.90;10.13;;;;;;;13.39;86.18;99969.52;4306763;82;28521;-88
2022/10/27 00:06:19;;;;;;;21.93;11.38;;;;;;;13.26;83.71;99967.80;4315050;82;28482;-88
2022/10/27 00:12:21;;;;;;;18.60;10.90;;;;;;;13.27;84.17;99970.79;4298654;82;28497;-88
2022/10/27 00:18:22;;;;;;;20.05;11.48;;;;;;;13.13;83.54;99971.50;4327201;82;28502;-87
2022/10/27 00:24:23;;;;;;;22.45;11.55;;;;;;;13.09;85.36;99973.81;4334756;82;28461;-87
2022/10/27 00:30:25;;;;;;;21.65;11.00;;;;;;;13.14;85.54;99979.05;4334904;82;28548;-88
2022/10/27 00:36:26;;;;;;;20.52;11.30;;;;;;;13.14;84.99;99985.30;4327505;82;28445;-89
2022/10/27 00:42:27;;;;;;;22.52;11.85;;;;;;;13.17;83.25;99985.34;4326570;82;28487;-93
2022/10/27 00:48:31;;;;;;;19.85;11.93;;;;;;;13.10;82.09;99987.61;4309169;82;28453;-93
2022/10/27 00:54:38;;;;;;;20.62;10.85;;;;;;;13.09;83.12;99984.61;4328119;82;28491;-93
2022/10/27 01:00:41;;;;;;;21.20;11.48;;;;;;;12.93;82.09;99977.09;4311284;81;28482;-94
2022/10/27 01:06:42;;;;;;;20.50;10.75;;;;;;;12.79;81.84;99971.84;4284085;82;28449;-94
2022/10/27 01:12:44;;;;;;;17.67;11.00;;;;;;;12.72;83.81;99982.41;4333446;82;28436;-93
2022/10/27 01:19:06;;;;;;;18.32;10.45;;;;;;;12.89;84.44;99985.34;4184110;83;28471;-94
2022/10/27 01:25:48;;;;;;;20.97;11.53;;;;;;;12.54;85.44;99985.35;4188409;83;28492;-93
2022/10/27 01:31:58;;;;;;;19.60;11.00;;;;;;;12.65;84.80;99985.97;4282330;81;28466;-87
2022/10/27 01:38:15;;;;;;;22.62;10.75;;;;;;;12.59;84.87;99980.64;4298505;81;28453;-88
2022/10/27 01:44:22;;;;;;;18.55;10.30;;;;;;;12.55;84.54;99987.84;4315477;82;28477;-87
2022/10/27 01:50:33;;;;;;;17.10;10.80;;;;;;;12.40;85.11;99989.52;4315817;81;28508;-88
2022/10/27 01:56:52;;;;;;;17.95;10.78;;;;;;;12.52;85.43;99988.26;4307142;82;28542;-92
2022/10/27 02:03:01;;;;;;;17.60;10.13;;;;;;;12.43;84.11;99994.97;4293365;81;28441;-91
2022/10/27 02:09:11;;;;;;;17.27;10.23;;;;;;;12.19;84.55;99988.00;4331582;81;28477;-91
2022/10/27 02:15:32;;;;;;;15.65;9.93;;;;;;;12.37;85.82;99991.28;4333995;82;28461;-89
2022/10/27 02:21:36;;;;;;;16.95;10.10;;;;;;;12.18;86.87;99994.44;4338792;82;28463;-89
2022/10/27 02:27:42;;;;;;;18.37;10.03;;;;;;;12.23;85.23;99997.30;4324946;81;28849;-89
2022/10/27 02:33:44;;;;;;;16.30;9.88;;;;;;;12.23;84.46;100007.27;4296034;82;28523;-87
2022/10/27 02:39:46;;;;;;;19.73;9.90;;;;;;;12.05;85.43;100008.02;4343773;82;28441;-87
2022/10/27 02:45:47;;;;;;;15.78;9.65;;;;;;;12.04;85.73;100019.30;4302239;82;28507;-92
2022/10/27 02:51:48;;;;;;;17.27;8.68;;;;;;;11.94;84.53;100017.57;4309595;82;28469;-91
2022/10/27 02:57:53;;;;;;;17.55;9.70;;;;;;;11.90;84.05;100017.17;4327635;82;28637;-91
2022/10/27 03:03:53;;;;;;;17.67;9.93;;;;;;;11.54;88.42;100026.68;4326448;81;28546;-92
2022/10/27 03:09:54;;;;;;;17.32;9.80;;;;;;;11.74;87.40;100031.16;4312095;82;28472;-87
2022/10/27 03:15:56;;;;;;;13.85;8.95;;;;;;;11.65;86.64;100028.70;4309523;82;28466;-88
2022/10/27 03:22:00;;;;;;;14.85;8.78;;;;;;;11.63;84.97;100040.72;4344812;81;28491;-92
2022/10/27 03:28:01;;;;;;;15.40;8.50;;;;;;;11.58;84.88;100044.05;4289479;82;28463;-92
2022/10/27 03:34:03;;;;;;;16.75;9.25;;;;;;;11.66;83.38;100049.20;4311548;82;28610;-88
2022/10/27 03:40:06;;;;;;;16.10;9.45;;;;;;;11.86;82.16;100063.92;4297992;82;28564;-91
2022/10/27 03:46:09;;;;;;;14.35;8.78;;;;;;;11.84;84.05;100061.16;4302202;82;28473;-91
2022/10/27 03:52:10;;;;;;;13.72;8.43;;;;;;;11.63;82.50;100059.07;4318187;81;28473;-92
2022/10/27 03:58:14;;;;;;;15.78;9.25;;;;;;;11.63;81.50;100059.07;4314802;82;28473;-89
2022/10/27 04:04:16;;;;;;;14.53;9.23;;;;;;;11.70;83.80;100060.39;4271638;82;28460;-91
2022/10/27 04:10:18;;;;;;;19.12;10.82;;;;;;;11.78;82.49;100058.80;4265208;82;28472;-78
2022/10/27 04:16:19;;;;;;;17.98;10.72;;;;;;;12.05;83.57;100064.62;4271927;82;28457;-80
2022/10/27 04:22:20;;;;;;;16.45;10.08;;;;;;;12.11;82.88;100065.92;4292733;82;28497;-80
2022/10/27 04:28:22;;;;;;;18.50;10.53;;;;;;;11.56;83.66;100069.88;4285258;82;28572;-78
2022/10/27 04:34:23;;;;;;;25.05;15.58;;;;;;;11.60;84.04;100074.83;4204943;83;28523;-81
2022/10/27 04:40:25;;;;;;;19.65;11.08;;;;;;;11.62;83.28;100068.19;4227914;83;28529;-80
2022/10/27 04:46:26;;;;;;;17.52;9.78;;;;;;;11.57;83.64;100063.95;4250443;83;28539;-80
2022/10/27 04:52:28;;;;;;;19.52;10.50;;;;;;;11.68;81.22;100071.37;4241959;83;28452;-92
2022/10/27 04:58:29;;;;;;;20.55;9.95;;;;;;;11.57;80.78;100077.42;4258178;83;28497;-82
2022/10/27 05:04:30;;;;;;;18.55;9.48;;;;;;;11.79;81.93;100079.83;4213624;83;28471;-88
2022/10/27 05:10:33;;;;;;;17.52;9.55;;;;;;;11.86;81.67;100086.02;4235663;83;28461;-88
2022/10/27 05:16:36;;;;;;;20.27;12.18;;;;;;;11.79;83.65;100090.60;4248249;83;28445;-84
2022/10/27 05:22:38;;;;;;;19.17;10.95;;;;;;;12.12;83.65;100095.88;4258342;83;28581;-84
2022/10/27 05:28:49;;;;;;;19.73;12.03;;;;;;;12.07;83.03;100100.27;4266685;82;28583;-86
2022/10/27 05:35:02;;;;;;;23.35;10.90;;;;;;;11.99;84.92;100105.36;4320209;81;28484;-86
2022/10/27 05:41:05;;;;;;;21.12;12.28;;;;;;;12.22;83.96;100102.14;4291539;81;28495;-81
2022/10/27 05:47:07;;;;;;;16.60;10.68;;;;;;;12.30;83.43;100112.38;4320833;81;28511;-81
2022/10/27 05:53:10;;;;;;;22.67;12.53;;;;;;;12.61;81.76;100121.02;4312641;81;28491;-82
2022/10/27 05:59:12;;;;;;;19.52;12.35;;;;;;;12.46;82.51;100128.06;4320403;82;28525;-81
2022/10/27 06:05:13;;;;;;;21.48;12.20;;;;;;;12.73;82.05;100137.31;4326799;81;28504;-82
2022/10/27 06:11:17;;;;;;;21.00;12.95;;;;;;;12.82;81.89;100141.40;4322632;81;28446;-82
2022/10/27 06:17:18;;;;;;;21.00;12.43;;;;;;;12.99;81.84;100150.32;4307353;81;28462;-82
2022/10/27 06:23:19;;;;;;;25.92;13.13;;;;;;;13.36;80.80;100156.34;4324030;81;28509;-82
2022/10/27 06:29:21;;;;;;;25.02;13.22;;;;;;;13.54;80.72;100165.03;4322777;81;28542;-81
2022/10/27 06:35:22;;;;;;;24.65;13.68;;;;;;;13.66;81.63;100163.23;4299905;82;28484;-82
2022/10/27 06:41:24;;;;;;;22.82;12.35;;;;;;;13.69;84.10;100170.08;4298843;81;28472;-82
2022/10/27 06:47:25;;;;;;;27.67;13.13;;;;;;;13.88;83.66;100183.06;4317360;82;28426;-82
2022/10/27 06:53:26;;;;;;;24.63;12.03;;;;;;;14.03;83.33;100181.34;4326927;82;28499;-82
2022/10/27 06:59:28;;;;;;;27.27;13.20;;;;;;;14.18;82.93;100174.73;4326611;81;28465;-82
2022/10/27 07:05:31;;;;;;;21.75;12.58;;;;;;;14.10;85.23;100188.56;4317936;81;28496;-82
2022/10/27 07:11:32;;;;;;;18.65;11.20;;;;;;;13.91;88.18;100197.50;4306730;81;28552;-82
2022/10/27 07:17:34;;;;;;;23.10;11.75;;;;;;;14.34;87.42;100188.97;4305812;82;28496;-81
2022/10/27 07:23:38;;;;;;;26.10;12.03;;;;;;;14.50;88.92;100208.35;4311275;81;28551;-82
2022/10/27 07:29:39;;;;;;;23.83;12.10;;;;;;;14.77;88.41;100213.41;4307509;82;28501;-82
2022/10/27 07:35:42;;;;;;;22.95;11.78;;;;;;;14.96;87.59;100216.91;4267304;82;28478;-82
2022/10/27 07:41:43;;;;;;;21.35;11.65;;;;;;;14.99;88.40;100227.27;4158401;85;28525;-82
2022/10/27 07:47:51;;;;;;;21.73;11.53;;;;;;;15.27;86.64;100226.32;4165420;85;28543;-82
2022/10/27 07:53:56;;;;;;;19.98;12.15;;;;;;;15.39;85.89;100246.67;4126017;85;28587;-82
2022/10/27 07:59:58;;;;;;;22.37;10.95;;;;;;;15.52;85.67;100249.16;4234885;83;28495;-83
2022/10/27 08:06:03;;;;;;;20.75;11.73;;;;;;;15.64;86.39;100244.27;4227665;83;28435;-82
2022/10/27 08:12:05;;;;;;;20.68;10.32;;;;;;;15.97;85.16;100241.00;4196794;83;28521;-83
2022/10/27 08:18:08;;;;;;;20.70;10.88;;;;;;;16.36;86.74;100235.02;4222038;83;28471;-82
2022/10/27 08:24:10;;;;;;;16.23;9.50;;;;;;;16.52;88.84;100240.77;4201884;83;28474;-82
2022/10/27 08:30:11;;;;;;;16.73;9.78;;;;;;;16.80;88.64;100241.30;4238496;82;28627;-83
2022/10/27 08:36:14;;;;;;;12.20;8.03;;;;;;;16.99;88.07;100245.98;4306634;82;28456;-82
2022/10/27 08:42:48;;;;;;;14.60;7.92;;;;;;;17.16;88.60;100252.02;4314082;82;28449;-81
2022/10/27 08:48:54;;;;;;;11.05;7.30;;;;;;;17.37;85.73;100254.53;4295242;81;28513;-82
2022/10/27 08:55:13;;;;;;;11.33;7.37;;;;;;;17.58;84.32;100257.58;4314919;82;28445;-83
2022/10/27 09:01:53;;;;;;;13.40;7.92;;;;;;;17.64;82.93;100255.77;4295485;81;28493;-83
2022/10/27 09:08:09;;;;;;;14.50;7.95;;;;;;;17.25;85.29;100249.19;4291702;82;28516;-83
2022/10/27 09:14:26;;;;;;;12.00;7.67;;;;;;;18.02;81.46;100247.34;4294583;82;28522;-83
2022/10/27 09:20:53;;;;;;;10.18;6.40;;;;;;;18.35;80.29;100247.53;4279813;82;28421;-83
2022/10/27 09:26:57;;;;;;;12.68;7.00;;;;;;;18.33;79.50;100261.94;4272148;82;28461;-83
2022/10/27 09:33:00;;;;;;;13.25;7.60;;;;;;;18.30;80.84;100267.34;4276651;82;28507;-83
2022/10/27 09:39:01;;;;;;;14.13;8.18;;;;;;;18.64;79.99;100263.64;4291327;82;28485;-83
2022/10/27 09:45:11;;;;;;;12.53;7.70;;;;;;;18.72;79.61;100266.48;4304914;82;28471;-83
2022/10/27 09:51:23;;;;;;;14.83;8.90;;;;;;;19.17;78.38;100261.78;4305809;82;28594;-83
2022/10/27 09:57:29;;;;;;;13.98;8.20;;;;;;;19.25;77.48;100263.21;4298732;82;28470;-84
2022/10/27 10:03:30;;;;;;;16.90;8.63;;;;;;;19.38;76.84;100262.77;4304631;82;28475;-82
2022/10/27 10:09:38;;;;;;;15.40;8.43;;;;;;;19.60;76.24;100265.94;4307326;82;28449;-82
2022/10/27 10:15:45;;;;;;;14.47;7.47;;;;;;;19.78;75.29;100263.33;4309412;82;28479;-83
2022/10/27 10:21:57;;;;;;;13.05;6.95;;;;;;;20.26;73.62;100255.72;4307631;80;28502;-83
2022/10/27 10:28:05;;;;;;;11.60;6.33;;;;;;;20.80;72.02;100253.17;4305519;82;28461;-83
2022/10/27 10:34:12;;;;;;;11.80;6.83;;;;;;;21.24;69.53;100251.06;4278864;82;28499;-83
2022/10/27 10:40:20;;;;;;;10.18;5.55;;;;;;;21.42;69.17;100251.06;4304867;82;28576;-83
2022/10/27 10:46:23;;;;;;;12.90;5.40;;;;;;;21.73;68.07;100245.59;4356857;81;28454;-83
2022/10/27 10:52:33;;;;;;;8.98;4.95;;;;;;;21.45;68.11;100238.19;4326181;81;28470;-83
2022/10/27 10:58:40;;;;;;;7.65;5.12;;;;;;;21.13;67.79;100226.98;4309180;82;28473;-83
2022/10/27 11:04:46;;;;;;;7.78;4.47;;;;;;;21.16;68.54;100229.20;4293044;82;28459;-83
2022/10/27 11:10:49;;;;;;;7.37;4.05;;;;;;;21.20;68.46;100232.20;4303445;82;42737;-83
2022/10/27 11:16:57;;;;;;;8.90;4.22;;;;;;;21.09;67.46;100233.57;4319209;82;28465;-82
2022/10/27 11:23:11;;;;;;;8.15;4.55;;;;;;;21.27;67.67;100228.10;4283831;81;28460;-82
2022/10/27 11:29:25;;;;;;;5.90;3.98;;;;;;;21.22;67.58;100228.65;4271847;82;28497;-82
2022/10/27 11:35:47;;;;;;;7.22;3.85;;;;;;;21.27;67.57;100228.10;4205109;82;28491;-82
2022/10/27 11:42:07;;;;;;;7.12;4.08;;;;;;;21.18;66.16;100222.34;4351991;80;28580;-82
2022/10/27 11:48:20;;;;;;;6.10;3.50;;;;;;;21.16;65.86;100222.36;4299082;80;28492;-82
2022/10/27 11:54:27;;;;;;;6.55;3.60;;;;;;;21.21;65.42;100221.54;4345622;80;28457;-81
2022/10/27 12:00:37;;;;;;;6.05;3.55;;;;;;;21.37;65.68;100213.59;4345410;82;28502;-82
2022/10/27 12:07:33;;;;;;;6.10;3.65;;;;;;;21.49;65.21;100206.47;4317595;82;28485;-82
2022/10/27 12:14:00;;;;;;;5.03;3.22;;;;;;;21.25;64.01;100207.05;4342942;80;28468;-82
2022/10/27 12:20:08;;;;;;;6.92;3.83;;;;;;;21.43;64.40;100197.45;4323993;80;28491;-82
2022/10/27 12:26:23;;;;;;;6.53;3.37;;;;;;;21.58;64.04;100195.77;4337998;80;28455;-82
2022/10/27 12:32:29;;;;;;;8.33;3.90;;;;;;;21.66;63.77;100195.22;4346877;80;28487;-83
2022/10/27 12:38:56;;;;;;;6.65;3.58;;;;;;;21.57;62.69;100198.24;4354018;80;28452;-82
2022/10/27 12:45:37;;;;;;;8.70;3.50;;;;;;;21.83;63.50;100200.97;4317681;80;28555;-85
2022/10/27 12:51:53;;;;;;;7.85;4.15;;;;;;;21.94;62.92;100200.37;4308867;80;28498;-85
2022/10/27 12:58:20;;;;;;;7.22;3.75;;;;;;;21.73;63.15;100200.42;4330702;81;28541;-84
2022/10/27 13:04:35;;;;;;;7.17;3.90;;;;;;;22.10;62.50;100188.81;4085589;85;28919;-86
2022/10/27 13:11:12;;;;;;;9.30;3.87;;;;;;;22.07;62.20;100197.59;4093612;85;28508;-85
2022/10/27 13:17:42;;;;;;;8.53;4.78;;;;;;;22.03;61.63;100197.89;4249687;81;28450;-86
2022/10/27 13:24:21;;;;;;;9.28;4.62;;;;;;;22.09;62.09;100202.23;4245388;81;28480;-83
2022/10/27 13:30:29;;;;;;;7.93;4.20;;;;;;;22.04;61.86;100192.69;4249897;82;28569;-82
2022/10/27 13:36:37;;;;;;;9.10;4.28;;;;;;;22.13;61.73;100194.55;4120174;85;28493;-84
2022/10/27 13:42:58;;;;;;;7.00;4.03;;;;;;;22.29;62.40;100191.19;4069513;86;28574;-81
2022/10/27 13:49:00;;;;;;;;;;;;;;;22.26;61.69;100193.66;4113934;85;28512;-82
2022/10/27 13:55:30;;;;;;;6.47;4.35;;;;;;;22.23;61.12;100180.54;4098530;85;20234;-81
2022/10/27 14:01:54;;;;;;;6.40;4.17;;;;;;;22.34;62.04;100180.75;4082347;84;28554;-81
2022/10/27 14:07:56;;;;;;;7.22;4.35;;;;;;;22.36;62.12;100184.02;4134402;84;28494;-80
2022/10/27 14:14:09;;;;;;;7.97;3.52;;;;;;;22.34;62.11;100184.06;4150352;84;28566;-81
2022/10/27 14:20:31;;;;;;;5.55;3.90;;;;;;;21.98;60.98;100193.25;4157329;84;28525;-81
2022/10/27 14:26:35;;;;;;;6.35;3.85;;;;;;;22.24;61.68;100195.34;4136190;84;28506;-81
2022/10/27 14:32:39;;;;;;;8.18;3.67;;;;;;;22.15;62.11;100197.02;4151251;83;28598;-81
2022/10/27 14:38:45;;;;;;;5.90;3.60;;;;;;;22.01;62.79;100198.97;4182994;84;28567;-81
2022/10/27 14:44:52;;;;;;;5.78;3.27;;;;;;;21.84;62.93;100200.67;4185950;83;28536;-83
2022/10/27 14:50:57;;;;;;;7.37;3.33;;;;;;;21.64;63.73;100207.00;4173978;84;28504;-81
2022/10/27 14:57:30;;;;;;;7.87;3.27;;;;;;;21.49;63.92;100203.73;4171171;84;28556;-82
2022/10/27 15:03:34;;;;;;;6.45;3.20;;;;;;;21.39;64.32;100207.85;4168073;84;28475;-81
2022/10/27 15:09:44;;;;;;;6.22;3.27;;;;;;;21.18;64.88;100211.41;4167785;84;28471;-81
2022/10/27 15:15:48;;;;;;;6.92;3.35;;;;;;;21.10;65.09;100206.50;4151679;84;28506;-81
2022/10/27 15:21:52;;;;;;;8.73;3.42;;;;;;;20.88;65.73;100208.95;4178716;84;28498;-82
2022/10/27 15:28:01;;;;;;;8.73;3.17;;;;;;;20.67;66.43;100211.31;4170008;84;29034;-80
2022/10/27 15:34:06;;;;;;;6.37;3.17;;;;;;;20.36;67.49;100215.33;4186186;83;28604;-82
2022/10/27 15:40:35;;;;;;;8.78;3.08;;;;;;;20.27;67.60;100217.23;4166810;84;28484;-81
2022/10/27 15:46:38;;;;;;;8.25;3.50;;;;;;;20.08;68.59;100227.78;4175038;84;28537;-82
2022/10/27 15:52:43;;;;;;;5.47;3.30;;;;;;;19.89;68.95;100223.30;4178812;84;28525;-80
2022/10/27 15:59:33;;;;;;;;;;;;;;;;;;;;;
2022/10/27 16:05:49;;;;;;;7.90;3.27;;;;;;;19.54;70.50;100225.53;4049042;86;28495;-80
2022/10/27 16:11:56;;;;;;;9.55;3.70;;;;;;;19.42;71.09;100225.73;4136180;84;28477;-87
2022/10/27 16:17:59;;;;;;;10.30;4.30;;;;;;;19.18;72.50;100224.70;4108807;84;28481;-82
2022/10/27 16:24:18;;;;;;;11.18;4.20;;;;;;;19.09;73.27;100229.82;4204246;82;28530;-81
2022/10/27 16:30:22;;;;;;;9.00;3.58;;;;;;;18.88;74.27;100226.59;4215752;82;28504;-82
2022/10/27 16:36:23;;;;;;;7.50;3.90;;;;;;;18.64;75.91;100230.95;4287960;81;28552;-82
2022/10/27 16:42:29;;;;;;;8.65;3.70;;;;;;;18.55;77.44;100229.80;4309208;81;28504;-81
2022/10/27 16:48:31;;;;;;;8.35;4.10;;;;;;;18.43;77.58;100238.92;4295420;82;28583;-83
2022/10/27 16:54:34;;;;;;;10.78;4.70;;;;;;;17.97;79.82;100256.26;4290877;82;28476;-82
2022/10/27 17:00:38;;;;;;;9.43;3.55;;;;;;;18.19;79.68;100254.69;4236519;83;28519;-82
2022/10/27 17:06:42;;;;;;;21.17;8.70;;;;;;;18.05;80.55;100255.58;4209665;83;28516;-86
2022/10/27 17:12:43;;;;;;;12.98;4.55;;;;;;;18.04;81.77;100259.38;4212233;83;28465;-84
2022/10/27 17:18:46;;;;;;;9.35;4.22;;;;;;;18.02;81.66;100261.50;4206716;83;28474;-83
2022/10/27 17:24:47;;;;;;;9.05;4.33;;;;;;;17.93;80.74;100257.01;4227148;83;28518;-83
2022/10/27 17:30:49;;;;;;;8.43;3.42;;;;;;;17.78;81.90;100263.88;4294657;82;28520;-83
2022/10/27 17:36:50;;;;;;;7.65;3.65;;;;;;;17.27;82.84;100258.44;4315994;81;28553;-84
2022/10/27 17:42:52;;;;;;;10.20;4.33;;;;;;;17.32;83.36;100267.22;4318674;81;28484;-84
2022/10/27 17:49:08;;;;;;;12.33;4.75;;;;;;;17.27;85.13;100259.80;4285993;81;28479;-84
2022/10/27 17:55:19;;;;;;;10.40;5.33;;;;;;;17.15;85.60;100259.89;4309027;81;28461;-84
2022/10/27 18:01:32;;;;;;;12.90;5.42;;;;;;;17.05;85.95;100258.34;4311824;82;28489;-85
2022/10/27 18:07:36;;;;;;;14.75;6.28;;;;;;;16.96;88.49;100270.09;4296293;82;28436;-84
2022/10/27 18:13:44;;;;;;;10.23;4.87;;;;;;;17.02;87.84;100265.61;4312106;82;28493;-83
2022/10/27 18:19:47;;;;;;;10.48;5.20;;;;;;;16.88;87.60;100268.59;4301247;81;28477;-84
2022/10/27 18:25:49;;;;;;;14.68;5.58;;;;;;;16.89;87.72;100266.17;4311206;82;28462;-85
2022/10/27 18:31:50;;;;;;;14.90;6.03;;;;;;;16.69;88.13;100265.26;4294986;82;28453;-83
2022/10/27 18:37:54;;;;;;;16.60;8.50;;;;;;;16.63;88.25;100265.70;4299651;82;28524;-80
2022/10/27 18:43:57;;;;;;;15.65;8.25;;;;;;;16.82;87.60;100258.72;4280942;82;28495;-81
2022/10/27 18:49:59;;;;;;;14.78;8.10;;;;;;;16.62;88.73;100276.27;4297214;82;28518;-80
2022/10/27 18:56:04;;;;;;;19.48;8.58;;;;;;;16.73;88.36;100284.06;4302701;82;28440;-81
2022/10/27 19:02:10;;;;;;;19.80;9.98;;;;;;;16.69;88.23;100283.72;4290997;82;28501;-81
2022/10/27 19:08:13;;;;;;;17.73;9.10;;;;;;;16.56;89.34;100288.91;4302313;82;28496;-81
2022/10/27 19:14:14;;;;;;;20.00;11.10;;;;;;;16.80;87.68;100298.86;4302677;82;28462;-80
2022/10/27 19:20:19;;;;;;;19.20;10.45;;;;;;;16.73;90.52;100299.00;4293669;82;28473;-80
2022/10/27 19:26:25;;;;;;;17.62;9.25;;;;;;;16.69;89.56;100300.56;4305548;82;28515;-80
2022/10/27 19:32:26;;;;;;;19.43;9.57;;;;;;;16.52;89.28;100302.66;4279996;82;28447;-81
2022/10/27 19:38:28;;;;;;;17.98;9.90;;;;;;;16.39;89.51;100305.09;4281862;81;28461;-81
2022/10/27 19:44:29;;;;;;;24.57;10.58;;;;;;;16.34;89.33;100304.16;4299696;82;28447;-83
2022/10/27 19:56:47;;;;;;;19.10;10.32;;;;;;;16.05;88.57;100313.04;4312059;82;28449;-83
2022/10/27 20:02:49;;;;;;;21.52;9.93;;;;;;;15.94;90.10;100313.87;4306639;81;28492;-83
2022/10/27 20:08:50;;;;;;;17.90;9.58;;;;;;;15.94;88.80;100299.79;4263632;82;28428;-93
2022/10/27 20:14:54;;;;;;;22.22;10.88;;;;;;;15.87;88.12;100300.40;4264996;82;28503;-90
2022/10/27 20:20:55;;;;;;;21.55;9.88;;;;;;;15.72;88.51;100304.41;4319108;82;28434;-93
2022/10/27 20:26:57;;;;;;;22.20;10.50;;;;;;;15.53;89.68;100303.66;4305628;82;28473;-87
2022/10/27 20:32:59;;;;;;;20.50;10.60;;;;;;;15.66;90.22;100295.84;4272651;82;28472;-88
2022/10/27 20:39:01;;;;;;;21.23;10.43;;;;;;;14.99;91.55;100298.19;4245023;83;28513;-89
2022/10/27 20:45:03;;;;;;;19.65;11.78;;;;;;;15.40;90.21;100305.23;4321240;82;28432;-87
2022/10/27 20:51:11;;;;;;;20.80;12.15;;;;;;;14.94;93.42;100294.00;4302535;82;28911;-89
2022/10/27 20:57:13;;;;;;;22.13;12.30;;;;;;;15.26;92.44;100298.66;4320893;82;28523;-89
2022/10/27 21:03:15;;;;;;;19.95;11.48;;;;;;;15.19;92.08;100289.80;4319770;82;28540;-89
2022/10/27 21:09:19;;;;;;;22.25;12.13;;;;;;;14.99;92.14;100291.42;4320320;82;28423;-89
2022/10/27 21:15:21;;;;;;;24.67;13.40;;;;;;;14.81;91.64;100305.31;4331939;82;28500;-88
2022/10/27 21:21:24;;;;;;;23.05;13.20;;;;;;;14.81;93.78;100295.00;4291263;82;28518;-89
2022/10/27 21:27:26;;;;;;;21.80;11.05;;;;;;;15.10;91.93;100283.05;4261281;82;28447;-92
2022/10/27 21:33:27;;;;;;;19.30;11.43;;;;;;;14.93;89.09;100281.53;4309326;81;28468;-93
2022/10/27 21:39:29;;;;;;;22.42;12.30;;;;;;;14.83;90.13;100276.64;4285858;82;28502;-93
2022/10/27 21:45:30;;;;;;;20.25;12.07;;;;;;;14.95;89.88;100280.77;4269337;83;28445;-91
2022/10/27 21:51:32;;;;;;;23.25;12.65;;;;;;;14.67;89.91;100278.91;4262390;82;28595;-88
2022/10/27 21:57:36;;;;;;;22.48;12.68;;;;;;;14.81;90.17;100276.05;4284147;82;28447;-89
2022/10/27 22:03:41;;;;;;;20.20;12.65;;;;;;;14.91;89.89;100274.46;4283553;82;28483;-87
2022/10/27 22:09:43;;;;;;;19.77;12.35;;;;;;;14.63;89.58;100274.47;4285851;82;28492;-89
2022/10/27 22:15:46;;;;;;;22.30;12.30;;;;;;;14.50;91.55;100276.00;4271107;82;28459;-89
2022/10/27 22:21:49;;;;;;;23.45;12.68;;;;;;;14.56;90.04;100273.72;4298425;82;28447;-88
2022/10/27 22:27:53;;;;;;;21.12;12.10;;;;;;;14.44;91.36;100270.97;4290611;82;28464;-87
2022/10/27 22:34:00;;;;;;;20.92;11.83;;;;;;;14.42;89.11;100274.95;4253476;82;28537;-88
2022/10/27 22:40:04;;;;;;;;;;;;;;;14.46;88.11;100270.72;4219218;83;28527;-88
2022/10/27 22:46:11;;;;;;;21.85;12.00;;;;;;;14.03;89.46;100279.22;4169906;84;20197;-86
2022/10/27 22:52:12;;;;;;;20.30;11.53;;;;;;;14.38;89.52;100279.98;4209416;83;28474;-86
2022/10/27 22:58:14;;;;;;;20.60;12.00;;;;;;;14.39;87.77;100290.28;4191638;83;28455;-87
2022/10/27 23:04:16;;;;;;;21.20;12.55;;;;;;;14.17;87.63;100285.33;4154215;84;28477;-88
2022/10/27 23:10:17;;;;;;;21.50;12.73;;;;;;;14.22;88.54;100285.46;4157818;83;28519;-87
2022/10/27 23:16:21;;;;;;;18.90;11.50;;;;;;;14.12;87.42;100285.16;4185981;83;28452;-88
2022/10/27 23:22:24;;;;;;;17.52;11.15;;;;;;;14.02;85.23;100285.14;4201052;84;28469;-88
2022/10/27 23:28:26;;;;;;;17.65;11.22;;;;;;;13.91;82.76;100289.42;4198318;84;28482;-92
2022/10/27 23:34:29;;;;;;;25.10;12.10;;;;;;;14.15;82.51;100293.66;4191222;84;28474;-92
2022/10/27 23:40:30;;;;;;;20.75;11.78;;;;;;;13.86;85.73;100297.36;4189527;85;28496;-92
2022/10/27 23:46:31;;;;;;;20.08;11.22;;;;;;;13.75;84.97;100291.33;4204341;84;28454;-91
2022/10/27 23:52:33;;;;;;;18.42;11.38;;;;;;;13.57;85.10;100289.41;4187751;84;28548;-89
2022/10/27 23:58:38;;;;;;;18.92;11.53;;;;;;;13.54;87.70;100286.61;4197457;83;28471;-91
